createdAt,value
2018-09-15T00:01:45.378Z,99589.73
2018-09-15T00:04:19.927Z,99587.46
2018-09-15T00:06:54.757Z,99593.17
2018-09-15T00:09:29.767Z,99591.29
2018-09-15T00:12:04.438Z,99591.56
2018-09-15T00:14:39.090Z,99587.67
2018-09-15T00:17:14.012Z,99590.05
2018-09-15T00:19:48.652Z,99587.13
2018-09-15T00:22:23.364Z,99588.34
2018-09-15T00:24:57.902Z,99589.53
2018-09-15T00:27:32.336Z,99581.52
2018-09-15T00:30:07.031Z,99585.95
2018-09-15T00:32:41.606Z,99587.36
2018-09-15T00:35:16.314Z,99588.12
2018-09-15T00:37:51.200Z,99588.67
2018-09-15T00:40:25.877Z,99589.48
2018-09-15T00:43:00.692Z,99590.69
2018-09-15T00:45:35.177Z,99596.13
2018-09-15T00:48:09.928Z,99596.58
2018-09-15T00:50:44.565Z,99596.73
2018-09-15T00:53:19.125Z,99603.28
2018-09-15T00:55:53.968Z,99602.98
2018-09-15T00:58:28.839Z,99602.23
2018-09-15T01:01:03.536Z,99607.02
2018-09-15T01:03:38.084Z,99611.41
2018-09-15T01:06:12.706Z,99608.89
2018-09-15T01:08:47.315Z,99611.16
2018-09-15T01:11:22.113Z,99606.06
2018-09-15T01:13:57.383Z,99609.59
2018-09-15T01:16:32.006Z,99611.05
2018-09-15T01:19:06.882Z,99603.95
2018-09-15T01:21:41.605Z,99610.59
2018-09-15T01:24:16.064Z,99610.20
2018-09-15T01:26:50.640Z,99609.69
2018-09-15T01:29:25.240Z,99612.82
2018-09-15T01:31:59.753Z,99610.05
2018-09-15T01:34:34.169Z,99608.03
2018-09-15T01:37:08.760Z,99606.27
2018-09-15T01:39:49.283Z,99608.29
2018-09-15T01:42:24.213Z,99613.32
2018-09-15T01:44:58.767Z,99608.83
2018-09-15T01:47:33.335Z,99615.62
2018-09-15T01:50:08.033Z,99614.58
2018-09-15T01:52:42.589Z,99617.39
2018-09-15T01:55:17.824Z,99612.59
2018-09-15T01:57:52.524Z,99615.41
2018-09-15T02:00:26.981Z,99614.44
2018-09-15T02:03:01.614Z,99613.50
2018-09-15T02:05:36.936Z,99612.31
2018-09-15T02:08:11.574Z,99610.48
2018-09-15T02:10:46.092Z,99606.92
2018-09-15T02:13:20.964Z,99614.48
2018-09-15T02:15:55.744Z,99609.47
2018-09-15T02:18:30.233Z,99610.37
2018-09-15T02:21:04.738Z,99607.73
2018-09-15T02:23:39.205Z,99597.58
2018-09-15T02:26:14.068Z,99600.05
2018-09-15T02:29:05.725Z,99609.55
2018-09-15T02:31:41.070Z,99610.91
2018-09-15T02:34:32.601Z,99609.77
2018-09-15T02:37:07.626Z,99611.73
2018-09-15T02:39:41.996Z,99609.60
2018-09-15T02:42:16.443Z,99619.16
2018-09-15T02:44:51.152Z,99611.77
2018-09-15T02:47:25.618Z,99627.14
2018-09-15T02:50:00.044Z,99624.53
2018-09-15T02:52:34.549Z,99617.35
2018-09-15T02:55:09.321Z,99631.92
2018-09-15T02:57:43.977Z,99623.84
2018-09-15T03:00:18.588Z,99618.48
2018-09-15T03:02:53.394Z,99619.89
2018-09-15T03:05:28.053Z,99624.48
2018-09-15T03:08:02.600Z,99621.69
2018-09-15T03:10:37.376Z,99626.61
2018-09-15T03:13:12.283Z,99627.41
2018-09-15T03:15:46.942Z,99624.39
2018-09-15T03:18:21.795Z,99625.38
2018-09-15T03:20:56.253Z,99627.52
2018-09-15T03:23:30.656Z,99617.80
2018-09-15T03:26:05.288Z,99618.81
2018-09-15T03:28:39.845Z,99623.45
2018-09-15T03:31:14.466Z,99622.34
2018-09-15T03:33:49.240Z,99623.14
2018-09-15T03:36:23.820Z,99624.17
2018-09-15T03:38:59.646Z,99625.48
2018-09-15T03:41:34.176Z,99626.20
2018-09-15T03:44:08.793Z,99623.45
2018-09-15T03:46:43.257Z,99628.59
2018-09-15T03:49:17.647Z,99624.47
2018-09-15T03:51:52.224Z,99618.98
2018-09-15T03:54:26.868Z,99623.77
2018-09-15T03:57:01.211Z,99621.11
2018-09-15T03:59:35.756Z,99620.00
2018-09-15T04:02:10.423Z,99628.16
2018-09-15T04:04:45.117Z,99627.31
2018-09-15T04:07:19.777Z,99631.09
2018-09-15T04:09:54.436Z,99629.21
2018-09-15T04:12:28.991Z,99628.11
2018-09-15T04:15:04.076Z,99625.59
2018-09-15T04:17:38.448Z,99631.34
2018-09-15T04:20:13.000Z,99628.62
2018-09-15T04:22:47.617Z,99631.38
2018-09-15T04:25:22.265Z,99636.27
2018-09-15T04:27:56.800Z,99641.77
2018-09-15T04:30:31.260Z,99647.50
2018-09-15T04:33:05.760Z,99647.50
2018-09-15T04:35:40.469Z,99654.52
2018-09-15T04:38:15.103Z,99653.09
2018-09-15T04:40:49.780Z,99646.17
2018-09-15T04:43:24.393Z,99653.22
2018-09-15T04:45:59.009Z,99655.22
2018-09-15T04:48:33.685Z,99649.53
2018-09-15T04:51:08.305Z,99653.31
2018-09-15T04:53:42.984Z,99656.84
2018-09-15T04:56:17.429Z,99658.71
2018-09-15T04:58:52.024Z,99664.15
2018-09-15T05:01:26.479Z,99665.98
2018-09-15T05:04:01.124Z,99671.70
2018-09-15T05:06:35.714Z,99670.05
2018-09-15T05:09:11.796Z,99668.05
2018-09-15T05:11:46.413Z,99666.84
2018-09-15T05:14:21.051Z,99670.06
2018-09-15T05:16:55.491Z,99675.16
2018-09-15T05:19:30.109Z,99677.12
2018-09-15T05:22:04.668Z,99679.34
2018-09-15T05:24:39.491Z,99683.42
2018-09-15T05:27:14.177Z,99683.08
2018-09-15T05:29:48.797Z,99686.65
2018-09-15T05:32:23.489Z,99686.30
2018-09-15T05:34:58.216Z,99697.04
2018-09-15T05:37:32.971Z,99690.89
2018-09-15T05:40:07.877Z,99690.89
2018-09-15T05:42:42.474Z,99692.16
2018-09-15T05:45:17.170Z,99693.83
2018-09-15T05:47:51.771Z,99694.38
2018-09-15T05:50:26.194Z,99694.13
2018-09-15T05:53:00.942Z,99695.58
2018-09-15T05:55:35.476Z,99697.84
2018-09-15T05:58:10.264Z,99702.73
2018-09-15T06:00:44.873Z,99698.81
2018-09-15T06:03:19.450Z,99702.66
2018-09-15T06:05:54.073Z,99703.33
2018-09-15T06:08:28.602Z,99707.36
2018-09-15T06:11:03.488Z,99707.81
2018-09-15T06:13:38.063Z,99714.47
2018-09-15T06:16:12.573Z,99713.17
2018-09-15T06:18:47.045Z,99721.23
2018-09-15T06:21:21.880Z,99720.27
2018-09-15T06:23:56.533Z,99723.60
2018-09-15T06:26:32.097Z,99720.18
2018-09-15T06:29:06.844Z,99728.22
2018-09-15T06:31:41.453Z,99726.87
2018-09-15T06:34:16.125Z,99733.08
2018-09-15T06:36:51.075Z,99742.64
2018-09-15T06:39:25.925Z,99747.17
2018-09-15T06:42:00.642Z,99755.30
2018-09-15T06:44:35.154Z,99757.80
2018-09-15T06:47:09.586Z,99759.23
2018-09-15T06:49:44.168Z,99756.04
2018-09-15T06:52:19.249Z,99750.81
2018-09-15T06:54:53.868Z,99748.71
2018-09-15T06:57:28.724Z,99745.11
2018-09-15T07:00:03.241Z,99739.83
2018-09-15T07:02:37.880Z,99737.92
2018-09-15T07:05:12.616Z,99751.67
2018-09-15T07:07:47.348Z,99757.78
2018-09-15T07:10:22.328Z,99763.30
2018-09-15T07:12:56.932Z,99767.36
2018-09-15T07:15:31.557Z,99786.80
2018-09-15T07:18:06.545Z,99772.47
2018-09-15T07:20:41.340Z,99780.44
2018-09-15T07:23:16.108Z,99778.77
2018-09-15T07:25:50.647Z,99778.95
2018-09-15T07:28:25.141Z,99786.69
2018-09-15T07:31:00.055Z,99785.72
2018-09-15T07:33:34.570Z,99785.97
2018-09-15T07:36:09.233Z,99789.26
2018-09-15T07:38:43.846Z,99786.85
2018-09-15T07:41:18.433Z,99788.35
2018-09-15T07:43:53.489Z,99797.07
2018-09-15T07:46:28.056Z,99803.01
2018-09-15T07:49:02.639Z,99813.12
2018-09-15T07:51:37.262Z,99809.73
2018-09-15T07:54:12.237Z,99823.78
2018-09-15T07:56:46.861Z,99828.55
2018-09-15T07:59:21.521Z,99828.32
2018-09-15T08:01:56.666Z,99824.95
2018-09-15T08:04:31.355Z,99825.33
2018-09-15T08:07:05.917Z,99820.94
2018-09-15T08:09:40.593Z,99829.51
2018-09-15T08:12:16.347Z,99819.47
2018-09-15T08:14:50.824Z,99827.48
2018-09-15T08:17:25.349Z,99821.06
2018-09-15T08:19:59.981Z,99824.48
2018-09-15T08:22:34.598Z,99826.30
2018-09-15T08:25:09.621Z,99817.92
2018-09-15T08:27:44.359Z,99814.73
2018-09-15T08:30:19.020Z,99823.88
2018-09-15T08:32:53.541Z,99818.46
2018-09-15T08:35:28.253Z,99830.31
2018-09-15T08:38:03.001Z,99836.28
2018-09-15T08:40:37.745Z,99839.48
2018-09-15T08:43:12.759Z,99846.83
2018-09-15T08:45:50.704Z,99846.38
2018-09-15T08:48:25.404Z,99838.53
2018-09-15T08:51:00.078Z,99840.87
2018-09-15T08:53:34.721Z,99840.70
2018-09-15T08:56:09.335Z,99849.80
2018-09-15T08:58:44.125Z,99851.34
2018-09-15T09:01:19.104Z,99850.30
2018-09-15T09:03:53.867Z,99850.14
2018-09-15T09:06:28.366Z,99852.56
2018-09-15T09:09:02.870Z,99857.48
2018-09-15T09:11:37.433Z,99865.83
2018-09-15T09:14:11.974Z,99868.00
2018-09-15T09:16:46.505Z,99875.58
2018-09-15T09:19:21.089Z,99872.10
2018-09-15T09:21:55.989Z,99872.72
2018-09-15T09:24:30.448Z,99873.25
2018-09-15T09:27:05.021Z,99878.39
2018-09-15T09:29:39.557Z,99875.70
2018-09-15T09:32:14.103Z,99867.75
2018-09-15T09:34:48.629Z,99869.91
2018-09-15T09:37:23.263Z,99868.32
2018-09-15T09:39:57.923Z,99871.19
2018-09-15T09:42:32.459Z,99871.30
2018-09-15T09:45:08.022Z,99876.72
2018-09-15T09:47:42.862Z,99862.78
2018-09-15T09:50:17.266Z,99874.98
2018-09-15T09:52:51.926Z,99868.75
2018-09-15T09:55:26.529Z,99873.55
2018-09-15T09:58:01.235Z,99872.58
2018-09-15T10:00:41.193Z,99860.31
2018-09-15T10:03:15.771Z,99865.47
2018-09-15T10:05:50.580Z,99859.71
2018-09-15T10:08:25.269Z,99857.56
2018-09-15T10:10:59.909Z,99850.66
2018-09-15T10:13:34.477Z,99852.00
2018-09-15T10:16:09.261Z,99847.30
2018-09-15T10:18:43.911Z,99854.44
2018-09-15T10:21:18.465Z,99854.64
2018-09-15T10:23:52.956Z,99861.02
2018-09-15T10:26:27.429Z,99859.13
2018-09-15T10:29:02.024Z,99869.92
2018-09-15T10:31:37.152Z,99867.19
2018-09-15T10:34:11.574Z,99863.66
2018-09-15T10:36:46.189Z,99863.44
2018-09-15T10:39:20.801Z,99865.34
2018-09-15T10:41:55.540Z,99862.77
2018-09-15T10:44:30.014Z,99858.41
2018-09-15T10:47:04.596Z,99860.84
2018-09-15T10:49:39.147Z,99863.63
2018-09-15T10:52:13.569Z,99863.72
2018-09-15T10:54:48.284Z,99863.34
2018-09-15T10:57:22.965Z,99854.78
2018-09-15T10:59:57.977Z,99858.20
2018-09-15T11:02:32.628Z,99867.13
2018-09-15T11:05:07.205Z,99861.20
2018-09-15T11:07:41.820Z,99867.03
2018-09-15T11:10:16.517Z,99864.09
2018-09-15T11:12:50.980Z,99863.89
2018-09-15T11:15:25.501Z,99864.20
2018-09-15T11:18:00.103Z,99862.54
2018-09-15T11:20:34.709Z,99863.55
2018-09-15T11:23:09.351Z,99864.98
2018-09-15T11:25:43.784Z,99858.50
2018-09-15T11:28:18.684Z,99858.54
2018-09-15T11:30:53.432Z,99851.69
2018-09-15T11:33:28.333Z,99852.48
2018-09-15T11:36:02.873Z,99856.77
2018-09-15T11:38:37.453Z,99852.91
2018-09-15T11:41:12.180Z,99843.88
2018-09-15T11:43:46.780Z,99843.27
2018-09-15T11:46:21.391Z,99848.51
2018-09-15T11:48:56.178Z,99857.20
2018-09-15T11:51:30.852Z,99852.46
2018-09-15T11:54:05.384Z,99855.21
2018-09-15T11:56:40.302Z,99858.70
2018-09-15T11:59:14.872Z,99858.34
2018-09-15T12:01:49.850Z,99858.09
2018-09-15T12:04:24.432Z,99854.97
2018-09-15T12:06:58.982Z,99863.61
2018-09-15T12:09:33.729Z,99862.34
2018-09-15T12:12:08.288Z,99858.39
2018-09-15T12:14:43.344Z,99860.83
2018-09-15T12:17:17.677Z,99860.97
2018-09-15T12:19:52.117Z,99874.64
2018-09-15T12:22:27.129Z,99871.97
2018-09-15T12:25:01.702Z,99867.76
2018-09-15T12:27:36.209Z,99861.02
2018-09-15T12:30:10.825Z,99864.11
2018-09-15T12:32:45.492Z,99866.38
2018-09-15T12:35:20.093Z,99861.35
2018-09-15T12:37:54.567Z,99861.09
2018-09-15T12:40:29.491Z,99865.12
2018-09-15T12:43:04.155Z,99864.24
2018-09-15T12:45:38.749Z,99871.20
2018-09-15T12:48:13.274Z,99868.94
2018-09-15T12:50:48.099Z,99866.41
2018-09-15T12:53:22.597Z,99864.52
2018-09-15T12:55:57.309Z,99873.58
2018-09-15T12:58:31.828Z,99876.12
2018-09-15T13:01:07.034Z,99877.55
2018-09-15T13:03:41.601Z,99879.61
2018-09-15T13:06:16.094Z,99870.42
2018-09-15T13:08:50.576Z,99881.47
2018-09-15T13:11:25.120Z,99878.11
2018-09-15T13:13:59.884Z,99875.16
2018-09-15T13:16:34.446Z,99882.13
2018-09-15T13:19:08.996Z,99878.41
2018-09-15T13:21:43.661Z,99876.79
2018-09-15T13:24:22.178Z,99876.12
2018-09-15T13:26:56.788Z,99876.39
2018-09-15T13:29:31.400Z,99867.20
2018-09-15T13:32:06.073Z,99864.45
2018-09-15T13:34:40.566Z,99867.34
2018-09-15T13:37:15.015Z,99872.25
2018-09-15T13:39:49.598Z,99870.37
2018-09-15T13:42:24.133Z,99871.05
2018-09-15T13:44:59.107Z,99863.70
2018-09-15T13:47:33.675Z,99854.94
2018-09-15T13:50:08.213Z,99843.29
2018-09-15T13:52:42.632Z,99844.69
2018-09-15T13:55:17.123Z,99855.10
2018-09-15T13:57:51.593Z,99858.24
2018-09-15T14:00:26.057Z,99865.38
2018-09-15T14:03:00.686Z,99865.48
2018-09-15T14:05:35.376Z,99868.14
2018-09-15T14:08:09.984Z,99869.30
2018-09-15T14:10:44.643Z,99882.69
2018-09-15T14:13:19.209Z,99875.98
2018-09-15T14:15:53.817Z,99880.67
2018-09-15T14:18:28.210Z,99880.36
2018-09-15T14:21:02.773Z,99878.53
2018-09-15T14:23:37.382Z,99878.58
2018-09-15T14:26:12.269Z,99877.88
2018-09-15T14:28:47.193Z,99876.66
2018-09-15T14:31:21.676Z,99879.71
2018-09-15T14:33:56.121Z,99873.30
2018-09-15T14:36:31.093Z,99873.00
2018-09-15T14:39:07.913Z,99877.31
2018-09-15T14:41:42.737Z,99874.58
2018-09-15T14:44:17.332Z,99870.25
2018-09-15T14:46:52.002Z,99868.06
2018-09-15T14:49:26.544Z,99876.97
2018-09-15T14:52:01.230Z,99875.80
2018-09-15T14:54:35.782Z,99868.06
2018-09-15T14:57:10.389Z,99864.92
2018-09-15T14:59:45.256Z,99869.98
2018-09-15T15:02:19.845Z,99864.92
2018-09-15T15:04:54.369Z,99868.72
2018-09-15T15:07:28.922Z,99868.98
2018-09-15T15:10:03.544Z,99866.00
2018-09-15T15:12:38.124Z,99874.38
2018-09-15T15:15:12.672Z,99877.75
2018-09-15T15:17:47.344Z,99874.53
2018-09-15T15:20:21.937Z,99877.17
2018-09-15T15:22:56.664Z,99873.88
2018-09-15T15:25:31.434Z,99867.23
2018-09-15T15:28:06.525Z,99866.75
2018-09-15T15:30:40.987Z,99862.63
2018-09-15T15:33:15.588Z,99865.12
2018-09-15T15:35:50.266Z,99861.45
2018-09-15T15:38:25.169Z,99858.08
2018-09-15T15:41:00.000Z,99863.36
2018-09-15T15:43:34.663Z,99859.39
2018-09-15T15:46:09.009Z,99855.36
2018-09-15T15:48:43.422Z,99862.48
2018-09-15T15:51:17.958Z,99867.02
2018-09-15T15:53:52.839Z,99856.30
2018-09-15T15:56:27.576Z,99861.82
2018-09-15T15:59:02.334Z,99851.27
2018-09-15T16:01:36.874Z,99861.17
2018-09-15T16:04:11.432Z,99872.72
2018-09-15T16:06:46.013Z,99868.56
2018-09-15T16:09:20.777Z,99868.41
2018-09-15T16:11:55.411Z,99874.17
2018-09-15T16:14:30.029Z,99870.83
2018-09-15T16:17:04.719Z,99868.17
2018-09-15T16:19:39.626Z,99866.61
2018-09-15T16:22:14.196Z,99865.10
2018-09-15T16:24:48.774Z,99865.58
2018-09-15T16:27:23.292Z,99866.44
2018-09-15T16:29:57.825Z,99867.48
2018-09-15T16:32:32.434Z,99867.67
2018-09-15T16:35:07.069Z,99870.52
2018-09-15T16:37:41.712Z,99872.19
2018-09-15T16:40:16.474Z,99869.84
2018-09-15T16:42:51.353Z,99858.27
2018-09-15T16:45:25.988Z,99860.27
2018-09-15T16:48:00.864Z,99872.91
2018-09-15T16:50:35.555Z,99862.63
2018-09-15T16:53:10.720Z,99877.25
2018-09-15T16:55:45.400Z,99869.68
2018-09-15T16:58:19.953Z,99871.70
2018-09-15T17:00:54.406Z,99860.97
2018-09-15T17:03:29.672Z,99860.67
2018-09-15T17:06:04.148Z,99864.34
2018-09-15T17:08:39.032Z,99868.78
2018-09-15T17:11:13.573Z,99864.66
2018-09-15T17:13:48.433Z,99870.63
2018-09-15T17:16:22.958Z,99872.91
2018-09-15T17:18:57.426Z,99872.75
2018-09-15T17:21:32.041Z,99877.98
2018-09-15T17:24:07.305Z,99872.57
2018-09-15T17:26:42.297Z,99869.77
2018-09-15T17:29:16.962Z,99869.67
2018-09-15T17:31:51.529Z,99870.64
2018-09-15T17:34:26.097Z,99862.80
2018-09-15T17:37:00.804Z,99873.81
2018-09-15T17:39:35.349Z,99873.70
2018-09-15T17:42:10.033Z,99878.22
2018-09-15T17:44:44.504Z,99889.85
2018-09-15T17:47:19.153Z,99890.80
2018-09-15T17:49:53.769Z,99892.46
2018-09-15T17:52:28.765Z,99890.41
2018-09-15T17:55:03.666Z,99891.16
2018-09-15T17:57:38.080Z,99894.30
2018-09-15T18:00:13.066Z,99899.23
2018-09-15T18:02:47.493Z,99903.45
2018-09-15T18:05:22.048Z,99901.65
2018-09-15T18:07:56.868Z,99896.80
2018-09-15T18:10:31.864Z,99898.30
2018-09-15T18:13:06.416Z,99911.01
2018-09-15T18:15:41.033Z,99907.30
2018-09-15T18:18:15.587Z,99902.46
2018-09-15T18:20:50.015Z,99905.19
2018-09-15T18:23:24.932Z,99908.20
2018-09-15T18:25:59.464Z,99908.06
2018-09-15T18:28:34.137Z,99913.38
2018-09-15T18:31:08.782Z,99917.22
2018-09-15T18:33:43.379Z,99915.18
2018-09-15T18:36:18.448Z,99916.66
2018-09-15T18:38:53.155Z,99921.05
2018-09-15T18:41:28.045Z,99927.31
2018-09-15T18:44:03.125Z,99925.75
2018-09-15T18:46:37.905Z,99918.98
2018-09-15T18:49:12.517Z,99917.16
2018-09-15T18:51:47.217Z,99924.54
2018-09-15T18:54:21.812Z,99936.31
2018-09-15T18:56:56.416Z,99933.08
2018-09-15T18:59:31.376Z,99931.98
2018-09-15T19:02:06.281Z,99934.90
2018-09-15T19:04:40.891Z,99933.91
2018-09-15T19:07:15.852Z,99937.45
2018-09-15T19:09:50.801Z,99940.91
2018-09-15T19:12:25.485Z,99936.92
2018-09-15T19:15:00.609Z,99941.72
2018-09-15T19:17:35.297Z,99936.56
2018-09-15T19:20:09.933Z,99937.63
2018-09-15T19:22:50.268Z,99933.72
2018-09-15T19:25:24.799Z,99939.23
2018-09-15T19:27:59.626Z,99943.70
2018-09-15T19:30:34.144Z,99939.85
2018-09-15T19:33:08.687Z,99939.41
2018-09-15T19:35:43.297Z,99945.42
2018-09-15T19:38:17.825Z,99952.80
2018-09-15T19:40:52.483Z,99947.84
2018-09-15T19:43:27.076Z,99954.63
2018-09-15T19:46:01.668Z,99954.77
2018-09-15T19:48:36.286Z,99959.05
2018-09-15T19:51:10.904Z,99951.23
2018-09-15T19:53:45.434Z,99954.20
2018-09-15T19:56:19.997Z,99961.29
2018-09-15T19:58:54.572Z,99966.27
2018-09-15T20:01:29.448Z,99969.92
2018-09-15T20:04:04.101Z,99960.67
2018-09-15T20:06:38.900Z,99967.30
2018-09-15T20:09:13.412Z,99967.44
2018-09-15T20:11:47.757Z,99958.20
2018-09-15T20:14:22.356Z,99958.70
2018-09-15T20:16:55.833Z,99961.48
2018-09-15T20:19:29.343Z,99961.55
2018-09-15T20:22:04.432Z,99962.16
2018-09-15T20:24:39.250Z,99960.61
2018-09-15T20:27:13.921Z,99958.67
2018-09-15T20:29:48.499Z,99965.88
2018-09-15T20:32:23.177Z,99967.39
2018-09-15T20:34:57.704Z,99970.53
2018-09-15T20:37:32.442Z,99965.92
2018-09-15T20:40:07.574Z,99957.13
2018-09-15T20:42:42.098Z,99962.27
2018-09-15T20:45:16.566Z,99969.80
2018-09-15T20:47:51.360Z,99971.05
2018-09-15T20:50:26.054Z,99970.00
2018-09-15T20:53:00.619Z,99968.13
2018-09-15T20:55:35.153Z,99968.73
2018-09-15T20:58:30.615Z,99965.00
2018-09-15T21:01:05.228Z,99964.77
2018-09-15T21:03:39.822Z,99962.80
2018-09-15T21:06:14.616Z,99963.09
2018-09-15T21:08:49.142Z,99961.69
2018-09-15T21:11:23.708Z,99964.52
2018-09-15T21:13:58.238Z,99966.58
2018-09-15T21:16:32.860Z,99955.73
2018-09-15T21:19:07.411Z,99958.61
2018-09-15T21:21:42.076Z,99957.19
2018-09-15T21:24:16.644Z,99959.52
2018-09-15T21:26:51.274Z,99959.47
2018-09-15T21:29:25.906Z,99951.84
2018-09-15T21:32:00.622Z,99957.20
2018-09-15T21:34:35.253Z,99964.52
2018-09-15T21:37:10.181Z,99964.56
2018-09-15T21:39:44.664Z,99971.74
2018-09-15T21:42:19.138Z,99970.33
2018-09-15T21:44:53.669Z,99973.19
2018-09-15T21:47:28.168Z,99966.12
2018-09-15T21:50:02.771Z,99968.41
2018-09-15T21:52:37.372Z,99969.31
2018-09-15T21:55:11.815Z,99966.34
2018-09-15T21:57:46.537Z,99963.25
2018-09-15T22:00:21.308Z,99960.06
2018-09-15T22:02:55.929Z,99961.53
2018-09-15T22:05:30.607Z,99963.45
2018-09-15T22:08:05.221Z,99963.60
2018-09-15T22:10:39.856Z,99962.91
2018-09-15T22:13:14.445Z,99969.22
2018-09-15T22:15:48.915Z,99967.19
2018-09-15T22:18:23.462Z,99968.25
2018-09-15T22:20:58.217Z,99972.55
2018-09-15T22:23:33.038Z,99967.44
2018-09-15T22:26:08.081Z,99978.36
2018-09-15T22:28:42.654Z,99974.02
2018-09-15T22:31:17.223Z,99975.02
2018-09-15T22:33:51.854Z,99974.77
2018-09-15T22:36:26.405Z,99973.41
2018-09-15T22:39:00.883Z,99968.80
2018-09-15T22:41:35.501Z,99961.13
2018-09-15T22:44:10.055Z,99967.95
2018-09-15T22:46:44.708Z,99970.67
2018-09-15T22:49:19.406Z,99967.69
2018-09-15T22:51:54.051Z,99966.09
2018-09-15T22:54:28.677Z,99964.16
2018-09-15T22:57:03.217Z,99958.77
2018-09-15T22:59:37.839Z,99960.12
2018-09-15T23:02:12.790Z,99965.28
2018-09-15T23:04:47.346Z,99958.26
2018-09-15T23:07:21.967Z,99966.84
2018-09-15T23:09:56.672Z,99952.14
2018-09-15T23:12:31.209Z,99952.23
2018-09-15T23:15:05.809Z,99951.82
2018-09-15T23:17:40.397Z,99951.88
2018-09-15T23:20:15.055Z,99958.20
2018-09-15T23:22:49.628Z,99950.16
2018-09-15T23:25:24.351Z,99952.42
2018-09-15T23:27:58.857Z,99959.50
2018-09-15T23:30:33.413Z,99954.00
2018-09-15T23:33:08.062Z,99954.00
2018-09-15T23:35:42.692Z,99954.16
2018-09-15T23:38:17.371Z,99954.13
2018-09-15T23:40:52.265Z,99952.75
2018-09-15T23:43:26.874Z,99956.03
2018-09-15T23:46:01.443Z,99950.58
2018-09-15T23:48:35.976Z,99951.23
2018-09-15T23:51:10.370Z,99950.97
2018-09-15T23:53:44.779Z,99947.95
2018-09-15T23:56:19.316Z,99944.55
2018-09-15T23:58:53.897Z,99937.22
